»·PEaware :: N228DL KVNY-KSNA

N228DL :: KVNY-KSNA

FLIGHT INFORMATION

Flight Status: Arrived
Operator: Privately registered:
United States
More flights under this callsign
Pilot: Thiago S. (19132)
Aircraft: CESSNA 182 SKYLANE
(C182)
More flights by this aircraft type
Origin: KVNY Van Nuys
United States
Destination: KSNA John Wayne-Orange Co
United States
More flights between these airports :: More routes between these airports
Route: +
File this flight plan on PilotEdge
Remarks: CAT10
Altitude:
(Current/Filed)
5,500ft
Speed:
(Current/Filed)
0kts
Departed: 14-May-18 03:57 PM
Arrived: 14-May-18 04:43 PM
Distance/Time
Traveled:
44nm/0:46
Distance/Time
To Go:
Arrived

Flight Plot

Page will automatically refresh every two minutes.


Map Options




Map Legend


Flown Route
Filed Route
Departure Airport
Arrival Airport
Navaid (VOR, NDB)
Fix

Horizontal Profiles

Position Reports

Time Latitude Longitude Heading Altitude Ground
Speed
14-May-18 15:48 34.209121 -118.491769 86 802ft 0kts
14-May-18 15:49 34.209121 -118.491763 86 802ft 0kts
14-May-18 15:50 34.209121 -118.491756 86 802ft 0kts
14-May-18 15:51 34.210821 -118.491587 355 802ft 11kts
14-May-18 15:52 34.214658 -118.491897 355 802ft 15kts
14-May-18 15:53 34.218578 -118.492176 39 802ft 5kts
14-May-18 15:54 34.218638 -118.491948 88 802ft 0kts
14-May-18 15:55 34.218638 -118.491936 88 802ft 0kts
14-May-18 15:56 34.218562 -118.491207 172 802ft 0kts
14-May-18 15:57 34.206682 -118.489594 166 1163ft 75kts
14-May-18 15:58 34.183774 -118.490182 189 1865ft 90kts
14-May-18 15:59 34.158266 -118.498875 198 2433ft 99kts
14-May-18 16:00 34.131943 -118.510054 198 2935ft 105kts
14-May-18 16:01 34.099537 -118.518672 190 3049ft 125kts
14-May-18 16:02 34.071095 -118.506117 151 3631ft 108kts
14-May-18 16:03 34.043973 -118.489363 154 4104ft 110kts
14-May-18 16:04 34.016241 -118.473845 154 4537ft 110kts
14-May-18 16:05 33.987844 -118.454878 116 4754ft 135kts
14-May-18 16:06 34.007701 -118.423105 10 4761ft 131kts
14-May-18 16:07 34.040364 -118.438782 311 4794ft 131kts
14-May-18 16:08 34.060737 -118.475041 295 4874ft 131kts
14-May-18 16:09 34.039008 -118.497743 161 4653ft 136kts
14-May-18 16:10 34.012453 -118.478022 123 4646ft 132kts
14-May-18 16:11 34.034982 -118.463772 328 4779ft 124kts
14-May-18 16:12 34.063913 -118.489592 314 4758ft 135kts
14-May-18 16:13 34.089189 -118.531824 304 4785ft 133kts
14-May-18 16:14 34.109769 -118.567334 304 5142ft 123kts
14-May-18 16:15 34.129177 -118.600849 305 5521ft 127kts
14-May-18 16:16 34.151556 -118.636324 335 5483ft 136kts
14-May-18 16:17 34.154741 -118.609388 148 5384ft 139kts
14-May-18 16:18 34.126123 -118.581972 138 5492ft 134kts
14-May-18 16:19 34.102530 -118.557392 138 5457ft 132kts
14-May-18 16:20 34.075344 -118.529053 138 5468ft 129kts
14-May-18 16:21 34.045987 -118.503944 151 5449ft 129kts
14-May-18 16:22 34.015510 -118.480957 143 5451ft 129kts
14-May-18 16:23 33.986811 -118.455202 147 5465ft 128kts
14-May-18 16:24 33.954312 -118.437431 161 5469ft 129kts
14-May-18 16:25 33.921246 -118.421461 138 5459ft 130kts
14-May-18 16:26 33.896431 -118.390726 133 5488ft 128kts
14-May-18 16:27 33.868753 -118.363322 143 5487ft 129kts
14-May-18 16:28 33.839749 -118.337006 143 5477ft 131kts
14-May-18 16:29 33.812762 -118.307633 136 5484ft 131kts
14-May-18 16:30 33.786355 -118.277312 136 5498ft 131kts
14-May-18 16:31 33.760060 -118.247010 136 5499ft 131kts
14-May-18 16:32 33.733726 -118.216621 136 5508ft 131kts
14-May-18 16:33 33.715748 -118.176496 112 4835ft 146kts
14-May-18 16:34 33.701223 -118.131195 98 4022ft 142kts
14-May-18 16:35 33.704443 -118.103670 78 3485ft 145kts
14-May-18 16:36 33.716676 -118.037545 78 2557ft 135kts
14-May-18 16:37 33.724802 -117.993760 78 2171ft 134kts
14-May-18 16:38 33.730015 -117.964042 89 1890ft 135kts
14-May-18 16:39 33.706662 -117.916029 130 1490ft 121kts
14-May-18 16:40 33.705971 -117.880191 68 1013ft 109kts
14-May-18 16:41 33.694760 -117.858650 178 465ft 73kts
14-May-18 16:42 33.677934 -117.867368 212 57ft 41kts
14-May-18 16:43 33.675750 -117.869734 297 57ft 0kts
14-May-18 16:44 33.675751 -117.869736 297 57ft 0kts
14-May-18 16:45 33.675772 -117.869785 297 57ft 2kts
14-May-18 16:46 33.676726 -117.871205 15 57ft 12kts
14-May-18 16:47 33.676991 -117.871090 118 57ft 0kts
14-May-18 16:48 33.676991 -117.871090 118 57ft 0kts

Navigation Log

Ident Type
Flight plan parsing failed, navigation log unavailable